Ferrysburg, Michigan
Current Conditions -  °F | °C
As of 5:55 AM on Saturday 25 Oct 2014 (Local Time) from KMKG Reporting Station
Few Clouds Few Clouds  
Wind Chill: 56°   Ceiling: Unl
Heat Index: 56°   Visibility: 10mi
Dew Point: 50°   Wind: 9mph
Humidity: 80%   Direction: 250°WSW
Pressure: 29.83"   Gusts: NA
Location:  43.08°N, 86.22°W
Report Text: KMKG 250955Z 25008KT 10SM FEW041 13/10 A2983 RMK AO2 SLP103 FIRST AUGMENTED OBS OF THE DAY T01330100
Loading
Personal Weather Stations






























Interactive Weather Map
Tropical Storm Tracking
New forecast layout! Learn more

10-Day Weather Forecast

Advertisements
Track Severe Weather on mobile